createdAt,value
2022-09-21T00:01:06.167Z,17.80
2022-09-21T00:03:33.195Z,17.79
2022-09-21T00:06:07.303Z,17.79
2022-09-21T00:08:34.357Z,17.77
2022-09-21T00:11:01.567Z,17.78
2022-09-21T00:13:28.660Z,17.77
2022-09-21T00:15:56.381Z,17.73
2022-09-21T00:18:23.937Z,17.65
2022-09-21T00:20:52.661Z,17.74
2022-09-21T00:23:20.744Z,17.74
2022-09-21T00:25:47.715Z,17.74
2022-09-21T00:28:14.666Z,17.74
2022-09-21T00:30:41.734Z,17.71
2022-09-21T00:33:08.738Z,17.74
2022-09-21T00:35:35.732Z,17.73
2022-09-21T00:38:03.389Z,17.72
2022-09-21T00:40:30.709Z,17.71
2022-09-21T00:43:12.947Z,17.70
2022-09-21T00:45:39.952Z,17.70
2022-09-21T00:48:06.935Z,17.69
2022-09-21T00:50:33.894Z,17.69
2022-09-21T00:53:00.876Z,17.63
2022-09-21T00:55:56.108Z,17.69
2022-09-21T00:58:27.953Z,17.67
2022-09-21T01:00:55.501Z,17.65
2022-09-21T01:03:22.582Z,17.66
2022-09-21T01:05:49.561Z,17.66
2022-09-21T01:08:45.723Z,17.67
2022-09-21T01:11:52.152Z,17.66
2022-09-21T01:14:53.957Z,17.66
2022-09-21T01:17:54.061Z,17.64
2022-09-21T01:20:53.874Z,17.64
2022-09-21T01:23:43.941Z,17.64
2022-09-21T01:26:35.024Z,17.63
2022-09-21T01:29:16.399Z,17.64
2022-09-21T01:32:05.640Z,17.63
2022-09-21T01:34:32.798Z,17.61
2022-09-21T01:37:02.015Z,17.60
2022-09-21T01:39:29.021Z,17.61
2022-09-21T01:41:55.984Z,17.60
2022-09-21T01:44:24.976Z,17.59
2022-09-21T01:46:51.931Z,17.59
2022-09-21T01:49:23.457Z,17.59
2022-09-21T01:51:57.595Z,17.60
2022-09-21T01:54:29.587Z,17.56
2022-09-21T01:57:02.530Z,17.60
2022-09-21T01:59:48.101Z,17.60
2022-09-21T02:02:18.710Z,17.59
2022-09-21T02:04:45.688Z,17.58
2022-09-21T02:07:12.661Z,17.57
2022-09-21T02:09:39.637Z,17.57
2022-09-21T02:12:06.597Z,17.56
2022-09-21T02:14:33.729Z,17.56
2022-09-21T02:17:07.995Z,17.56
2022-09-21T02:20:17.754Z,17.56
2022-09-21T02:23:13.164Z,17.54
2022-09-21T02:26:07.057Z,17.54
2022-09-21T02:28:42.849Z,17.54
2022-09-21T02:31:40.415Z,17.55
2022-09-21T02:34:25.139Z,17.52
2022-09-21T02:37:03.460Z,17.54
2022-09-21T02:40:04.412Z,17.54
2022-09-21T02:42:36.206Z,17.49
2022-09-21T02:45:25.249Z,17.51
2022-09-21T02:47:53.665Z,17.51
2022-09-21T02:50:24.661Z,17.49
2022-09-21T02:52:51.613Z,17.51
2022-09-21T02:55:18.642Z,17.51
2022-09-21T02:57:46.165Z,17.51
2022-09-21T03:00:13.506Z,17.51
2022-09-21T03:02:41.741Z,17.50
2022-09-21T03:05:09.235Z,17.50
2022-09-21T03:07:36.267Z,17.48
2022-09-21T03:10:03.697Z,17.49
2022-09-21T03:12:31.276Z,17.48
2022-09-21T03:14:58.269Z,17.50
2022-09-21T03:17:25.351Z,17.49
2022-09-21T03:19:55.216Z,17.49
2022-09-21T03:22:23.237Z,17.52
2022-09-21T03:24:50.553Z,17.47
2022-09-21T03:27:18.962Z,17.51
2022-09-21T03:29:46.277Z,17.48
2022-09-21T03:32:14.595Z,17.50
2022-09-21T03:34:41.982Z,17.47
2022-09-21T03:37:09.496Z,17.48
2022-09-21T03:39:36.971Z,17.47
2022-09-21T03:42:04.434Z,17.49
2022-09-21T03:44:31.458Z,17.47
2022-09-21T03:46:58.526Z,17.47
2022-09-21T03:49:25.487Z,17.36
2022-09-21T03:51:52.505Z,17.44
2022-09-21T03:54:19.456Z,17.45
2022-09-21T03:56:46.443Z,17.46
2022-09-21T03:59:14.291Z,17.46
2022-09-21T04:01:42.017Z,17.45
2022-09-21T04:04:09.333Z,17.47
2022-09-21T04:06:36.497Z,17.45
2022-09-21T04:09:03.855Z,17.43
2022-09-21T04:11:32.702Z,17.42
2022-09-21T04:14:00.133Z,17.42
2022-09-21T04:16:27.413Z,17.41
2022-09-21T04:18:54.506Z,17.41
2022-09-21T04:21:22.494Z,17.41
2022-09-21T04:23:50.146Z,17.40
2022-09-21T04:26:23.266Z,17.39
2022-09-21T04:28:50.800Z,17.39
2022-09-21T04:31:17.965Z,17.39
2022-09-21T04:33:45.066Z,17.37
2022-09-21T04:36:12.122Z,17.37
2022-09-21T04:38:39.134Z,17.38
2022-09-21T04:41:06.326Z,17.37
2022-09-21T04:43:33.678Z,17.35
2022-09-21T04:46:06.386Z,17.39
2022-09-21T04:48:33.399Z,17.39
2022-09-21T04:51:00.391Z,17.35
2022-09-21T04:53:27.347Z,17.38
2022-09-21T04:55:54.916Z,17.38
2022-09-21T04:58:24.622Z,17.38
2022-09-21T05:00:52.439Z,17.37
2022-09-21T05:03:19.807Z,17.37
2022-09-21T05:05:50.595Z,17.36
2022-09-21T05:08:17.703Z,17.29
2022-09-21T05:10:44.899Z,17.36
2022-09-21T05:13:11.922Z,17.32
2022-09-21T05:15:39.852Z,17.32
2022-09-21T05:18:06.917Z,17.25
2022-09-21T05:20:34.016Z,17.27
2022-09-21T05:23:02.573Z,17.24
2022-09-21T05:25:29.818Z,17.29
2022-09-21T05:27:56.865Z,17.35
2022-09-21T05:30:24.304Z,17.24
2022-09-21T05:33:02.136Z,17.35
2022-09-21T05:35:52.187Z,17.26
2022-09-21T05:38:19.944Z,17.26
2022-09-21T05:40:50.511Z,17.27
2022-09-21T05:43:17.918Z,17.36
2022-09-21T05:45:47.875Z,17.22
2022-09-21T05:48:37.416Z,17.34
2022-09-21T05:51:12.424Z,17.25
2022-09-21T05:54:05.070Z,17.30
2022-09-21T05:56:38.107Z,17.33
2022-09-21T05:59:36.217Z,17.23
2022-09-21T06:02:27.340Z,17.32
2022-09-21T06:04:54.775Z,17.26
2022-09-21T06:07:21.819Z,17.22
2022-09-21T06:09:48.838Z,17.21
2022-09-21T06:12:15.809Z,17.30
2022-09-21T06:14:42.809Z,17.33
2022-09-21T06:17:09.830Z,17.29
2022-09-21T06:19:36.895Z,17.25
2022-09-21T06:22:03.888Z,17.35
2022-09-21T06:24:31.007Z,17.31
2022-09-21T06:26:58.049Z,17.26
2022-09-21T06:29:26.028Z,17.22
2022-09-21T06:31:53.106Z,17.24
2022-09-21T06:34:20.119Z,17.25
2022-09-21T06:36:47.441Z,17.27
2022-09-21T06:39:14.612Z,17.22
2022-09-21T06:41:41.766Z,17.27
2022-09-21T06:44:08.897Z,17.32
2022-09-21T06:46:35.923Z,17.26
2022-09-21T06:49:03.025Z,17.28
2022-09-21T06:51:30.043Z,17.26
2022-09-21T06:53:58.040Z,17.22
2022-09-21T06:56:25.659Z,17.33
2022-09-21T06:58:52.868Z,17.28
2022-09-21T07:01:20.901Z,17.32
2022-09-21T07:03:51.758Z,17.27
2022-09-21T07:06:19.047Z,17.27
2022-09-21T07:11:33.493Z,17.36
2022-09-21T07:14:00.588Z,17.37
2022-09-21T07:16:28.335Z,17.26
2022-09-21T07:18:55.448Z,17.27
2022-09-21T07:21:22.503Z,17.28
2022-09-21T07:23:49.545Z,17.36
2022-09-21T07:26:16.732Z,17.30
2022-09-21T07:28:43.765Z,17.26
2022-09-21T07:31:15.020Z,17.32
2022-09-21T07:33:42.863Z,17.29
2022-09-21T07:36:13.371Z,17.30
2022-09-21T07:38:44.112Z,17.28
2022-09-21T07:41:12.855Z,17.26
2022-09-21T07:43:40.634Z,17.32
2022-09-21T07:46:08.478Z,17.35
2022-09-21T07:48:35.601Z,17.32
2022-09-21T07:51:06.785Z,17.31
2022-09-21T07:53:37.956Z,17.38
2022-09-21T07:56:12.821Z,17.39
2022-09-21T07:58:58.429Z,17.29
2022-09-21T08:01:26.391Z,17.30
2022-09-21T08:03:54.417Z,17.32
2022-09-21T08:06:23.127Z,17.30
2022-09-21T08:08:55.054Z,17.31
2022-09-21T08:11:24.476Z,17.24
2022-09-21T08:14:00.542Z,17.21
2022-09-21T08:16:27.990Z,17.29
2022-09-21T08:18:55.483Z,17.30
2022-09-21T08:21:22.751Z,17.31
2022-09-21T08:23:50.089Z,17.31
2022-09-21T08:26:21.646Z,17.25
2022-09-21T08:28:52.386Z,17.34
2022-09-21T08:31:20.655Z,17.29
2022-09-21T08:33:48.464Z,17.32
2022-09-21T08:36:15.449Z,17.28
2022-09-21T08:38:42.482Z,17.40
2022-09-21T08:41:26.022Z,17.37
2022-09-21T08:44:13.579Z,17.38
2022-09-21T08:46:40.670Z,17.33
2022-09-21T08:49:14.998Z,17.29
2022-09-21T08:51:52.092Z,17.36
2022-09-21T08:54:42.178Z,17.35
2022-09-21T08:57:15.764Z,17.34
2022-09-21T08:59:49.212Z,17.33
2022-09-21T09:02:50.879Z,17.37
2022-09-21T09:05:43.262Z,17.39
2022-09-21T09:08:36.584Z,17.37
2022-09-21T09:11:29.232Z,17.38
2022-09-21T09:14:20.828Z,17.40
2022-09-21T09:16:53.551Z,17.40
2022-09-21T09:19:41.680Z,17.40
2022-09-21T09:22:11.246Z,17.37
2022-09-21T09:24:47.108Z,17.40
2022-09-21T09:27:33.088Z,17.40
2022-09-21T09:30:19.903Z,17.42
2022-09-21T09:32:55.538Z,17.41
2022-09-21T09:35:25.156Z,17.39
2022-09-21T09:37:53.430Z,17.38
2022-09-21T09:40:50.464Z,17.39
2022-09-21T09:43:40.109Z,17.41
2022-09-21T09:46:22.158Z,17.42
2022-09-21T09:49:09.403Z,17.44
2022-09-21T09:51:37.835Z,17.44
2022-09-21T09:54:09.534Z,17.46
2022-09-21T09:56:37.290Z,17.45
2022-09-21T09:59:08.390Z,17.44
2022-09-21T10:01:43.311Z,17.44
2022-09-21T10:04:14.985Z,17.43
2022-09-21T10:06:46.175Z,17.43
2022-09-21T10:09:26.106Z,17.45
2022-09-21T10:12:01.128Z,17.46
2022-09-21T10:14:30.013Z,17.45
2022-09-21T10:16:57.311Z,17.45
2022-09-21T10:19:25.676Z,17.43
2022-09-21T10:21:56.566Z,17.44
2022-09-21T10:24:34.499Z,17.46
2022-09-21T10:27:11.930Z,17.47
2022-09-21T10:29:46.477Z,17.46
2022-09-21T10:32:14.899Z,17.48
2022-09-21T10:34:59.527Z,17.48
2022-09-21T10:37:37.384Z,17.48
2022-09-21T10:40:05.401Z,17.49
2022-09-21T10:42:35.739Z,17.47
2022-09-21T10:45:28.067Z,17.48
2022-09-21T10:48:08.788Z,17.48
2022-09-21T10:50:46.239Z,17.50
2022-09-21T10:53:15.035Z,17.49
2022-09-21T10:56:15.598Z,17.49
2022-09-21T10:59:18.311Z,17.51
2022-09-21T11:01:58.893Z,17.51
2022-09-21T11:04:46.570Z,17.47
2022-09-21T11:07:27.729Z,17.51
2022-09-21T11:10:00.369Z,17.53
2022-09-21T11:12:30.061Z,17.54
2022-09-21T11:15:20.045Z,17.53
2022-09-21T11:17:55.411Z,17.52
2022-09-21T11:20:46.699Z,17.53
2022-09-21T11:23:28.776Z,17.54
2022-09-21T11:26:24.372Z,17.55
2022-09-21T11:32:05.197Z,17.57
2022-09-21T11:34:48.177Z,17.56
2022-09-21T11:37:44.524Z,17.56
2022-09-21T11:40:44.249Z,17.56
2022-09-21T11:43:32.772Z,17.54
2022-09-21T11:46:06.002Z,17.56
2022-09-21T11:48:41.773Z,17.56
2022-09-21T11:51:15.234Z,17.55
2022-09-21T11:54:03.518Z,17.54
2022-09-21T11:56:47.471Z,17.55
2022-09-21T11:59:50.102Z,17.56
2022-09-21T12:02:31.290Z,17.56
2022-09-21T12:05:04.527Z,17.55
2022-09-21T12:07:37.531Z,17.56
2022-09-21T12:10:44.559Z,17.57
2022-09-21T12:13:35.043Z,17.57
2022-09-21T12:16:28.645Z,17.58
2022-09-21T12:19:04.828Z,17.59
2022-09-21T12:21:44.969Z,17.60
2022-09-21T12:24:31.922Z,17.60
2022-09-21T12:27:22.290Z,17.63
2022-09-21T12:29:53.239Z,17.62
2022-09-21T12:32:29.284Z,17.63
2022-09-21T12:35:01.207Z,17.63
2022-09-21T12:37:41.327Z,17.64
2022-09-21T12:40:28.333Z,17.68
2022-09-21T12:43:03.623Z,17.69
2022-09-21T12:45:33.554Z,17.70
2022-09-21T12:48:08.103Z,17.73
2022-09-21T12:50:55.342Z,17.74
2022-09-21T12:53:27.560Z,17.75
2022-09-21T12:56:01.353Z,17.79
2022-09-21T12:58:44.402Z,17.81
2022-09-21T13:01:29.363Z,17.83
2022-09-21T13:04:02.375Z,17.85
2022-09-21T13:06:46.799Z,17.87
2022-09-21T13:09:15.575Z,17.87
2022-09-21T13:12:04.541Z,17.89
2022-09-21T13:14:34.957Z,17.88
2022-09-21T13:17:03.276Z,17.90
2022-09-21T13:19:31.724Z,17.92
2022-09-21T13:22:16.295Z,17.93
2022-09-21T13:24:43.307Z,17.93
2022-09-21T13:27:10.282Z,17.92
2022-09-21T13:29:39.323Z,17.95
2022-09-21T13:32:12.128Z,17.97
2022-09-21T13:34:40.197Z,17.99
2022-09-21T13:37:17.708Z,18.01
2022-09-21T13:40:03.229Z,18.03
2022-09-21T13:42:35.728Z,18.04
2022-09-21T13:45:13.872Z,18.04
2022-09-21T13:47:41.921Z,18.04
2022-09-21T13:50:23.849Z,18.03
2022-09-21T13:52:54.416Z,18.05
2022-09-21T13:55:41.020Z,18.05
2022-09-21T13:58:22.130Z,18.05
2022-09-21T14:01:42.499Z,18.05
2022-09-21T14:04:06.916Z,18.06
2022-09-21T14:06:41.752Z,18.07
2022-09-21T14:09:20.434Z,18.08
2022-09-21T14:11:50.131Z,18.10
2022-09-21T14:14:27.130Z,18.09
2022-09-21T14:16:56.480Z,18.08
2022-09-21T14:19:33.378Z,18.09
2022-09-21T14:22:06.149Z,18.09
2022-09-21T14:24:43.182Z,18.08
2022-09-21T14:27:45.915Z,18.07
2022-09-21T14:30:21.469Z,18.07
2022-09-21T14:33:01.030Z,18.07
2022-09-21T14:35:33.767Z,18.04
2022-09-21T14:38:03.034Z,18.08
2022-09-21T14:40:39.296Z,18.08
2022-09-21T14:43:12.646Z,18.10
2022-09-21T14:46:07.919Z,18.12
2022-09-21T14:48:54.246Z,18.15
2022-09-21T14:51:26.144Z,18.15
2022-09-21T14:54:20.413Z,18.18
2022-09-21T14:57:03.295Z,18.18
2022-09-21T14:59:39.083Z,18.21
2022-09-21T15:02:23.781Z,18.23
2022-09-21T15:04:57.896Z,18.25
2022-09-21T15:07:58.236Z,18.24
2022-09-21T15:10:55.098Z,18.24
2022-09-21T15:13:50.496Z,18.24
2022-09-21T15:16:22.073Z,18.24
2022-09-21T15:18:51.507Z,18.23
2022-09-21T15:21:29.545Z,18.23
2022-09-21T15:23:56.620Z,18.22
2022-09-21T15:26:29.467Z,18.23
2022-09-21T15:29:10.974Z,18.23
2022-09-21T15:31:40.051Z,18.23
2022-09-21T15:34:07.972Z,18.21
2022-09-21T15:36:38.766Z,18.21
2022-09-21T15:39:05.853Z,18.17
2022-09-21T15:41:45.777Z,18.21
2022-09-21T15:44:14.794Z,18.20
2022-09-21T15:46:43.510Z,18.20
2022-09-21T15:49:15.528Z,18.17
2022-09-21T15:51:45.549Z,18.18
2022-09-21T15:54:25.668Z,18.17
2022-09-21T15:56:52.900Z,18.16
2022-09-21T15:59:21.018Z,18.16
2022-09-21T16:01:50.932Z,18.12
2022-09-21T16:04:23.274Z,18.15
2022-09-21T16:07:23.280Z,18.14
2022-09-21T16:09:50.347Z,18.13
2022-09-21T16:12:26.180Z,18.12
2022-09-21T16:14:59.646Z,18.11
2022-09-21T16:17:29.984Z,18.10
2022-09-21T16:19:57.004Z,18.08
2022-09-21T16:22:25.571Z,18.07
2022-09-21T16:24:54.895Z,18.05
2022-09-21T16:27:24.093Z,18.05
2022-09-21T16:29:51.724Z,18.04
2022-09-21T16:32:18.703Z,18.03
2022-09-21T16:34:49.065Z,18.02
2022-09-21T16:37:19.040Z,18.02
2022-09-21T16:39:46.545Z,17.99
2022-09-21T16:42:13.514Z,17.99
2022-09-21T16:44:45.087Z,17.98
2022-09-21T16:47:17.004Z,17.99
2022-09-21T16:49:44.502Z,17.98
2022-09-21T16:52:11.432Z,17.97
2022-09-21T16:54:38.440Z,17.97
2022-09-21T16:57:06.512Z,17.96
2022-09-21T16:59:34.946Z,17.97
2022-09-21T17:02:05.206Z,17.98
2022-09-21T17:04:33.312Z,17.98
2022-09-21T17:07:01.040Z,17.98
2022-09-21T17:09:33.609Z,18.00
2022-09-21T17:12:02.115Z,17.99
2022-09-21T17:14:36.001Z,17.98
2022-09-21T17:17:10.751Z,17.97
2022-09-21T17:19:37.771Z,17.98
2022-09-21T17:22:05.493Z,17.97
2022-09-21T17:24:49.842Z,17.96
2022-09-21T17:27:20.173Z,17.95
2022-09-21T17:29:50.234Z,17.95
2022-09-21T17:32:20.892Z,17.96
2022-09-21T17:34:59.029Z,17.95
2022-09-21T17:37:26.081Z,17.95
2022-09-21T17:39:53.895Z,17.96
2022-09-21T17:42:23.281Z,17.95
2022-09-21T17:44:59.760Z,17.93
2022-09-21T17:47:31.044Z,17.94
2022-09-21T17:50:13.317Z,17.94
2022-09-21T17:52:59.861Z,17.93
2022-09-21T17:55:27.104Z,17.92
2022-09-21T17:58:16.785Z,17.91
2022-09-21T18:00:52.928Z,17.91
2022-09-21T18:03:22.373Z,17.89
2022-09-21T18:05:51.039Z,17.88
2022-09-21T18:08:18.372Z,17.86
2022-09-21T18:10:54.092Z,17.83
2022-09-21T18:13:39.574Z,17.81
2022-09-21T18:16:10.381Z,17.80
2022-09-21T18:18:43.274Z,17.79
2022-09-21T18:21:21.595Z,17.80
2022-09-21T18:24:21.489Z,17.79
2022-09-21T18:26:49.375Z,17.75
2022-09-21T18:29:38.831Z,17.74
2022-09-21T18:32:42.964Z,17.73
2022-09-21T18:35:22.883Z,17.71
2022-09-21T18:38:21.937Z,17.69
2022-09-21T18:41:01.838Z,17.69
2022-09-21T18:43:39.541Z,17.68
2022-09-21T18:46:29.104Z,17.69
2022-09-21T18:49:14.058Z,17.66
2022-09-21T18:51:44.441Z,17.65
2022-09-21T18:54:18.991Z,17.66
2022-09-21T18:56:45.947Z,17.63
2022-09-21T18:59:14.166Z,17.64
2022-09-21T19:01:44.741Z,17.64
2022-09-21T19:04:14.916Z,17.65
2022-09-21T19:07:03.094Z,17.64
2022-09-21T19:09:59.211Z,17.63
2022-09-21T19:12:52.713Z,17.62
2022-09-21T19:15:48.706Z,17.62
2022-09-21T19:18:20.297Z,17.61
2022-09-21T19:20:59.866Z,17.61
2022-09-21T19:23:58.869Z,17.60
2022-09-21T19:26:52.804Z,17.58
2022-09-21T19:29:35.575Z,17.58
2022-09-21T19:32:02.685Z,17.58
2022-09-21T19:34:29.825Z,17.57
2022-09-21T19:36:57.563Z,17.56
2022-09-21T19:39:24.866Z,17.54
2022-09-21T19:41:57.380Z,17.54
2022-09-21T19:45:01.657Z,17.56
2022-09-21T19:47:35.537Z,17.53
2022-09-21T19:50:19.831Z,17.57
2022-09-21T19:52:47.116Z,17.56
2022-09-21T19:55:34.714Z,17.56
2022-09-21T19:58:20.548Z,17.56
2022-09-21T20:00:52.013Z,17.52
2022-09-21T20:03:36.791Z,17.55
2022-09-21T20:06:26.664Z,17.54
2022-09-21T20:09:00.437Z,17.52
2022-09-21T20:11:39.268Z,17.50
2022-09-21T20:14:26.932Z,17.52
2022-09-21T20:16:59.558Z,17.51
2022-09-21T20:19:48.669Z,17.51
2022-09-21T20:22:17.358Z,17.51
2022-09-21T20:25:07.307Z,17.48
2022-09-21T20:27:45.228Z,17.48
2022-09-21T20:30:14.814Z,17.49
2022-09-21T20:32:43.866Z,17.49
2022-09-21T20:35:16.612Z,17.51
2022-09-21T20:37:44.093Z,17.50
2022-09-21T20:40:13.503Z,17.49
2022-09-21T20:42:40.976Z,17.48
2022-09-21T20:45:08.823Z,17.50
2022-09-21T20:47:35.815Z,17.43
2022-09-21T20:50:03.760Z,17.40
2022-09-21T20:52:30.745Z,17.48
2022-09-21T20:54:57.674Z,17.46
2022-09-21T20:57:24.817Z,17.46
2022-09-21T20:59:51.828Z,17.44
2022-09-21T21:02:18.847Z,17.42
2022-09-21T21:04:45.961Z,17.45
2022-09-21T21:07:12.875Z,17.40
2022-09-21T21:09:39.850Z,17.42
2022-09-21T21:12:06.994Z,17.42
2022-09-21T21:14:34.914Z,17.44
2022-09-21T21:17:02.595Z,17.45
2022-09-21T21:19:29.635Z,17.45
2022-09-21T21:21:56.520Z,17.46
2022-09-21T21:24:41.528Z,17.46
2022-09-21T21:27:18.686Z,17.45
2022-09-21T21:29:46.483Z,17.42
2022-09-21T21:32:14.755Z,17.43
2022-09-21T21:34:41.955Z,17.40
2022-09-21T21:37:09.443Z,17.40
2022-09-21T21:39:36.409Z,17.42
2022-09-21T21:42:03.752Z,17.41
2022-09-21T21:44:30.765Z,17.40
2022-09-21T21:47:06.125Z,17.41
2022-09-21T21:49:42.305Z,17.40
2022-09-21T21:52:09.244Z,17.39
2022-09-21T21:54:36.363Z,17.38
2022-09-21T21:57:03.678Z,17.39
2022-09-21T21:59:31.073Z,17.34
2022-09-21T22:01:58.046Z,17.40
2022-09-21T22:04:27.805Z,17.35
2022-09-21T22:06:55.066Z,17.39
2022-09-21T22:09:22.472Z,17.37
2022-09-21T22:11:49.452Z,17.38
2022-09-21T22:14:16.568Z,17.32
2022-09-21T22:16:43.569Z,17.37
2022-09-21T22:19:10.725Z,17.37
2022-09-21T22:21:42.181Z,17.30
2022-09-21T22:24:09.647Z,17.36
2022-09-21T22:26:38.691Z,17.31
2022-09-21T22:29:06.506Z,17.28
2022-09-21T22:31:39.192Z,17.30
2022-09-21T22:34:06.544Z,17.27
2022-09-21T22:36:34.462Z,17.26
2022-09-21T22:39:01.507Z,17.30
2022-09-21T22:41:30.220Z,17.36
2022-09-21T22:43:58.147Z,17.37
2022-09-21T22:46:26.137Z,17.37
2022-09-21T22:48:53.465Z,17.22
2022-09-21T22:51:20.849Z,17.28
2022-09-21T22:53:48.515Z,17.27
2022-09-21T22:56:19.846Z,17.33
2022-09-21T22:58:51.483Z,17.31
2022-09-21T23:01:20.519Z,17.31
2022-09-21T23:03:48.805Z,17.25
2022-09-21T23:06:17.972Z,17.27
2022-09-21T23:08:49.278Z,17.26
2022-09-21T23:11:19.755Z,17.25
2022-09-21T23:13:47.004Z,17.26
2022-09-21T23:16:14.357Z,17.24
2022-09-21T23:18:41.759Z,17.25
2022-09-21T23:21:11.567Z,17.25
2022-09-21T23:23:38.616Z,17.20
2022-09-21T23:26:06.765Z,17.30
2022-09-21T23:28:34.318Z,17.30
2022-09-21T23:31:02.470Z,17.23
2022-09-21T23:33:43.646Z,17.19
2022-09-21T23:36:12.501Z,17.23
2022-09-21T23:38:39.881Z,17.22
2022-09-21T23:41:11.240Z,17.19
2022-09-21T23:43:38.931Z,17.23
2022-09-21T23:46:06.284Z,17.28
2022-09-21T23:48:33.648Z,17.27
2022-09-21T23:51:00.837Z,17.13
2022-09-21T23:53:31.329Z,17.26
2022-09-21T23:55:58.385Z,17.26
2022-09-21T23:58:25.950Z,17.18
